Time;durP1;ratioP1;P1;durP2;ratioP2;P2;SDS_P1;SDS_P2;PMS_P1;PMS_P2;Temp;Humidity;BMP_temperature;BMP_pressure;BME280_temperature;BME280_humidity;BME280_pressure;Samples;Min_cycle;Max_cycle;Signal;HPM_P1;HPM_P2
2022/09/15 00:00:21;;;;;;;4.40;2.00;;;26.10;67.60;;;;;;5055340;28;20055;-70
2022/09/15 00:02:47;;;;;;;2.88;1.45;;;26.10;67.90;;;;;;5055306;28;20113;-70
2022/09/15 00:05:13;;;;;;;5.20;1.50;;;26.10;67.80;;;;;;5055188;28;20067;-70
2022/09/15 00:07:39;;;;;;;3.70;1.25;;;26.00;67.60;;;;;;5037332;28;20061;-71
2022/09/15 00:10:06;;;;;;;4.78;1.55;;;26.00;67.40;;;;;;5055101;28;20160;-71
2022/09/15 00:12:32;;;;;;;6.95;1.58;;;26.00;67.80;;;;;;5055035;28;20025;-68
2022/09/15 00:14:58;;;;;;;3.92;1.35;;;26.00;67.80;;;;;;5053620;28;20029;-71
2022/09/15 00:17:24;;;;;;;5.75;1.65;;;26.00;67.70;;;;;;5055096;28;20029;-69
2022/09/15 00:19:50;;;;;;;4.00;1.45;;;26.00;67.50;;;;;;5054814;28;20428;-71
2022/09/15 00:22:18;;;;;;;4.78;1.52;;;25.90;67.30;;;;;;5054854;28;20025;-72
2022/09/15 00:24:45;;;;;;;6.70;1.52;;;25.90;67.20;;;;;;5054747;28;20016;-71
2022/09/15 00:27:11;;;;;;;5.65;1.60;;;25.90;67.30;;;;;;5037070;28;20032;-68
2022/09/15 00:29:36;;;;;;;4.38;1.50;;;26.00;67.00;;;;;;5054789;28;20033;-71
2022/09/15 00:32:03;;;;;;;6.90;1.52;;;26.00;67.30;;;;;;5054815;28;20041;-70
2022/09/15 00:34:28;;;;;;;4.80;2.03;;;26.00;67.10;;;;;;5054597;28;20021;-72
2022/09/15 00:36:54;;;;;;;4.78;1.70;;;26.00;67.00;;;;;;5054536;28;20466;-72
2022/09/15 00:39:20;;;;;;;4.53;1.70;;;26.00;66.90;;;;;;5054529;28;20486;-67
2022/09/15 00:41:45;;;;;;;4.80;1.70;;;26.00;66.60;;;;;;5054439;28;20025;-72
2022/09/15 00:44:17;;;;;;;4.10;1.48;;;26.00;66.80;;;;;;5036491;28;20609;-72
2022/09/15 00:46:47;;;;;;;4.05;1.40;;;25.90;66.70;;;;;;5054538;28;20029;-68
2022/09/15 00:49:13;;;;;;;4.13;1.60;;;25.90;66.70;;;;;;5054310;28;20024;-69
2022/09/15 00:51:51;;;;;;;4.43;1.50;;;25.90;66.40;;;;;;5054514;28;20033;-70
2022/09/15 00:54:24;;;;;;;3.42;1.40;;;25.90;66.70;;;;;;5054362;28;20516;-72
2022/09/15 00:56:54;;;;;;;3.95;1.60;;;25.90;66.10;;;;;;5054350;28;20021;-69
2022/09/15 00:59:24;;;;;;;4.45;1.38;;;25.90;66.20;;;;;;5054351;28;20017;-70
2022/09/15 01:02:16;;;;;;;4.65;1.40;;;25.90;65.90;;;;;;5036454;28;20049;-69
2022/09/15 01:04:42;;;;;;;5.15;1.63;;;25.80;65.30;;;;;;5036236;28;20477;-67
2022/09/15 01:07:13;;;;;;;4.28;1.55;;;25.80;65.00;;;;;;5054030;28;20135;-68
2022/09/15 01:09:53;;;;;;;3.40;1.67;;;25.80;65.00;;;;;;5054366;28;20444;-70
2022/09/15 01:12:20;;;;;;;3.78;1.40;;;25.80;65.10;;;;;;5054206;28;20029;-71
2022/09/15 01:14:46;;;;;;;4.60;1.63;;;25.80;64.10;;;;;;5054031;28;20532;-67
2022/09/15 01:17:42;;;;;;;2.80;1.50;;;25.80;64.10;;;;;;5054092;28;20029;-66
2022/09/15 01:20:23;;;;;;;3.72;1.50;;;25.70;64.30;;;;;;5053921;28;20025;-67
2022/09/15 01:23:04;;;;;;;7.57;1.60;;;25.70;64.20;;;;;;5053874;28;20031;-67
2022/09/15 01:25:42;;;;;;;5.35;1.95;;;25.70;64.40;;;;;;5053529;28;20465;-67
2022/09/15 01:28:45;;;;;;;4.45;1.50;;;25.70;63.50;;;;;;5053840;28;20025;-68
2022/09/15 01:34:43;;;;;;;2.50;1.20;;;25.60;63.20;;;;;;5053906;28;20282;-68
2022/09/15 01:37:15;;;;;;;4.15;1.33;;;25.70;62.30;;;;;;5054324;28;20083;-69
2022/09/15 01:39:44;;;;;;;4.18;1.30;;;25.70;62.10;;;;;;5053710;28;20119;-70
2022/09/15 01:42:14;;;;;;;4.10;1.60;;;25.60;61.60;;;;;;5035647;28;20471;-71
2022/09/15 01:44:44;;;;;;;4.53;1.50;;;25.60;61.60;;;;;;5053410;28;20073;-70
2022/09/15 01:47:14;;;;;;;7.03;1.67;;;25.60;61.50;;;;;;5053348;28;20378;-71
2022/09/15 01:49:43;;;;;;;4.18;1.25;;;25.60;61.40;;;;;;5053071;28;20028;-69
2022/09/15 01:52:09;;;;;;;4.53;1.20;;;25.60;61.10;;;;;;5035200;28;20072;-72
2022/09/15 01:54:47;;;;;;;4.30;1.25;;;25.60;60.60;;;;;;5053052;28;20056;-69
2022/09/15 01:57:20;;;;;;;2.55;1.30;;;25.60;59.80;;;;;;5053076;28;20111;-71
2022/09/15 01:59:46;;;;;;;3.38;1.13;;;25.60;59.70;;;;;;5053365;28;20020;-70
2022/09/15 02:02:22;;;;;;;2.72;1.20;;;25.60;59.50;;;;;;5053129;28;20135;-71
2022/09/15 02:04:56;;;;;;;5.05;1.20;;;25.60;58.70;;;;;;5053091;28;20025;-71
2022/09/15 02:07:43;;;;;;;2.22;1.10;;;25.60;58.40;;;;;;5053027;28;20514;-70
2022/09/15 02:10:37;;;;;;;2.95;1.40;;;25.60;58.30;;;;;;5052859;28;20062;-67
2022/09/15 02:13:15;;;;;;;3.08;1.40;;;25.60;58.00;;;;;;5052785;28;20033;-68
2022/09/15 02:15:52;;;;;;;2.80;1.08;;;25.60;57.80;;;;;;5052685;28;20048;-68
2022/09/15 02:18:44;;;;;;;2.38;1.17;;;25.60;57.30;;;;;;5052977;28;20029;-67
2022/09/15 02:21:27;;;;;;;3.90;1.10;;;25.60;57.50;;;;;;5052676;28;20524;-66
2022/09/15 02:24:00;;;;;;;3.97;1.08;;;25.70;56.60;;;;;;5052561;28;20478;-66
2022/09/15 02:26:27;;;;;;;2.60;0.77;;;25.60;56.50;;;;;;5052744;28;20108;-67
2022/09/15 02:28:56;;;;;;;5.72;1.00;;;25.60;56.40;;;;;;5052644;28;20092;-69
2022/09/15 02:31:24;;;;;;;3.65;0.95;;;25.60;56.50;;;;;;5052735;28;20068;-68
2022/09/15 02:34:02;;;;;;;2.97;0.93;;;25.50;56.90;;;;;;5034730;28;20056;-69
2022/09/15 02:36:29;;;;;;;2.30;1.00;;;25.60;57.50;;;;;;5034789;28;20057;-69
2022/09/15 02:39:03;;;;;;;4.07;1.00;;;25.60;57.40;;;;;;5051993;28;20032;-69
2022/09/15 02:41:29;;;;;;;2.10;1.00;;;25.60;57.20;;;;;;5052631;28;20024;-67
2022/09/15 02:43:55;;;;;;;4.03;0.93;;;25.70;57.20;;;;;;5052555;28;20540;-67
2022/09/15 02:46:21;;;;;;;3.25;1.08;;;25.70;57.30;;;;;;5052501;28;20528;-69
2022/09/15 02:48:47;;;;;;;3.35;0.93;;;25.70;57.10;;;;;;5052438;28;20095;-70
2022/09/15 02:51:15;;;;;;;3.70;1.20;;;25.80;57.40;;;;;;5052134;28;20033;-69
2022/09/15 02:53:41;;;;;;;4.55;1.13;;;25.80;57.60;;;;;;5052138;28;20044;-68
2022/09/15 02:56:07;;;;;;;5.55;1.30;;;25.90;57.60;;;;;;5034370;28;20119;-71
2022/09/15 02:58:33;;;;;;;2.10;0.93;;;25.90;57.80;;;;;;5052441;28;20122;-70
2022/09/15 03:01:04;;;;;;;4.95;2.05;;;26.00;57.90;;;;;;5053137;28;20045;-70
2022/09/15 03:03:31;;;;;;;3.42;1.25;;;26.00;58.30;;;;;;5052499;28;20031;-68
2022/09/15 03:06:15;;;;;;;4.72;1.20;;;26.00;58.50;;;;;;5052045;28;20045;-69
2022/09/15 03:08:56;;;;;;;1.50;1.00;;;26.00;58.70;;;;;;5037098;28;20037;-70
2022/09/15 03:11:24;;;;;;;1.83;1.02;;;26.00;59.30;;;;;;5052283;28;20033;-70
2022/09/15 03:13:58;;;;;;;2.47;1.10;;;26.10;59.70;;;;;;5034460;28;20103;-67
2022/09/15 03:16:25;;;;;;;4.78;1.40;;;26.10;60.40;;;;;;5052503;28;20071;-67
2022/09/15 03:18:52;;;;;;;4.93;1.27;;;26.20;60.70;;;;;;5052347;28;20029;-68
2022/09/15 03:21:18;;;;;;;4.95;1.45;;;26.20;61.30;;;;;;5052097;28;20025;-68
2022/09/15 03:23:44;;;;;;;5.63;1.30;;;26.20;61.90;;;;;;5051998;28;20033;-67
2022/09/15 03:26:10;;;;;;;2.42;1.17;;;26.20;62.20;;;;;;5052172;28;20021;-68
2022/09/15 03:28:38;;;;;;;3.33;1.08;;;26.20;62.50;;;;;;5052215;28;20040;-68
2022/09/15 03:31:04;;;;;;;4.95;1.40;;;26.20;62.30;;;;;;5052052;28;20033;-67
2022/09/15 03:33:30;;;;;;;2.05;1.00;;;26.30;62.50;;;;;;5052056;28;20517;-67
2022/09/15 03:35:56;;;;;;;4.53;1.20;;;26.20;63.00;;;;;;5051808;28;20033;-67
2022/09/15 03:38:22;;;;;;;3.30;1.20;;;26.20;62.80;;;;;;5051882;28;20029;-69
2022/09/15 03:41:03;;;;;;;4.55;1.55;;;26.30;63.60;;;;;;5051740;28;20048;-69
2022/09/15 03:43:30;;;;;;;5.53;1.40;;;26.30;64.50;;;;;;5034566;28;20328;-67
2022/09/15 03:45:57;;;;;;;10.15;2.40;;;26.20;65.90;;;;;;5051691;28;20051;-68
2022/09/15 03:48:23;;;;;;;11.25;2.10;;;26.00;67.30;;;;;;5052652;28;20052;-67
2022/09/15 03:50:50;;;;;;;11.65;1.83;;;25.80;69.30;;;;;;5055628;28;20033;-68
2022/09/15 03:53:16;;;;;;;13.05;2.15;;;25.40;71.30;;;;;;5055791;28;20017;-70
2022/09/15 03:55:44;;;;;;;10.07;1.90;;;24.90;75.00;;;;;;5037642;28;20502;-69
2022/09/15 03:58:10;;;;;;;8.93;2.20;;;24.40;77.40;;;;;;5037367;28;20029;-69
2022/09/15 04:00:36;;;;;;;8.88;2.08;;;24.10;80.10;;;;;;5055296;28;20025;-68
2022/09/15 04:03:02;;;;;;;6.95;1.70;;;23.80;81.00;;;;;;5055516;28;20025;-67
2022/09/15 04:05:27;;;;;;;9.40;1.60;;;23.70;82.30;;;;;;5055154;28;20021;-69
2022/09/15 04:07:53;;;;;;;7.00;1.83;;;23.70;84.60;;;;;;5055313;28;20037;-69
2022/09/15 04:10:19;;;;;;;7.38;1.70;;;23.70;85.10;;;;;;5055102;28;20032;-68
2022/09/15 04:12:45;;;;;;;6.10;1.25;;;23.70;86.10;;;;;;5055215;28;20055;-68
2022/09/15 04:15:10;;;;;;;3.75;1.27;;;23.70;87.40;;;;;;5055030;28;20400;-68
2022/09/15 04:17:36;;;;;;;9.25;2.35;;;23.70;87.70;;;;;;5055280;28;20107;-66
2022/09/15 04:20:02;;;;;;;6.95;1.73;;;23.60;88.10;;;;;;5055105;28;20409;-68
2022/09/15 04:22:31;;;;;;;6.30;1.60;;;23.60;87.60;;;;;;5055052;28;20123;-69
2022/09/15 04:24:57;;;;;;;6.95;1.50;;;23.70;87.30;;;;;;5054913;28;20098;-70
2022/09/15 04:27:22;;;;;;;5.88;1.60;;;23.80;87.60;;;;;;5054980;28;20545;-67
2022/09/15 04:29:52;;;;;;;6.30;1.77;;;23.80;87.40;;;;;;5055018;28;20071;-69
2022/09/15 04:32:19;;;;;;;5.35;1.42;;;23.80;87.30;;;;;;5055087;28;20029;-68
2022/09/15 04:34:45;;;;;;;8.75;1.50;;;23.90;87.40;;;;;;5054803;28;20493;-69
2022/09/15 04:37:11;;;;;;;5.13;1.40;;;23.80;87.90;;;;;;5054882;28;20509;-68
2022/09/15 04:39:37;;;;;;;5.32;1.45;;;23.70;87.80;;;;;;5054681;28;20160;-69
2022/09/15 04:42:05;;;;;;;4.97;1.25;;;23.70;88.10;;;;;;5054542;28;20036;-72
2022/09/15 04:44:31;;;;;;;5.55;1.48;;;23.70;88.70;;;;;;5054669;28;20017;-71
2022/09/15 04:46:57;;;;;;;5.20;1.30;;;23.70;88.90;;;;;;5054683;28;20025;-70
2022/09/15 04:49:23;;;;;;;5.03;1.27;;;23.70;88.90;;;;;;5054491;28;20086;-71
2022/09/15 04:51:52;;;;;;;4.60;1.40;;;23.60;90.00;;;;;;5054875;28;20033;-70
2022/09/15 04:54:18;;;;;;;4.43;1.05;;;23.50;89.90;;;;;;5054453;28;20029;-69
2022/09/15 04:56:44;;;;;;;8.30;1.45;;;23.50;89.70;;;;;;5054568;28;20523;-70
2022/09/15 04:59:14;;;;;;;5.03;1.20;;;23.60;90.00;;;;;;5054508;28;20021;-69
2022/09/15 05:01:41;;;;;;;4.25;1.20;;;23.70;89.50;;;;;;5053880;28;20032;-69
2022/09/15 05:04:07;;;;;;;7.90;1.50;;;23.70;90.00;;;;;;5054336;28;20446;-69
2022/09/15 05:06:33;;;;;;;4.97;1.10;;;23.70;90.10;;;;;;5054247;28;20087;-70
2022/09/15 05:08:59;;;;;;;6.28;1.30;;;23.70;90.00;;;;;;5054218;28;20025;-71
2022/09/15 05:11:26;;;;;;;5.38;1.17;;;23.70;90.30;;;;;;5053972;28;20033;-68
2022/09/15 05:13:52;;;;;;;3.72;1.00;;;23.60;90.40;;;;;;5053974;28;20378;-69
2022/09/15 05:16:23;;;;;;;5.97;1.55;;;23.60;90.50;;;;;;5054141;28;20025;-73
2022/09/15 05:18:50;;;;;;;6.35;1.40;;;23.60;90.60;;;;;;5054108;28;20071;-69
2022/09/15 05:21:18;;;;;;;5.00;1.08;;;23.70;90.10;;;;;;5053857;28;20074;-69
2022/09/15 05:23:45;;;;;;;3.95;1.10;;;23.80;89.70;;;;;;5053722;28;20028;-69
2022/09/15 05:26:13;;;;;;;4.30;1.05;;;23.80;89.70;;;;;;5054084;28;20103;-68
2022/09/15 05:28:39;;;;;;;8.90;1.10;;;23.80;89.90;;;;;;5054093;28;20052;-71
2022/09/15 05:31:11;;;;;;;6.80;1.50;;;23.70;90.00;;;;;;5053700;28;20117;-70
2022/09/15 05:33:37;;;;;;;4.25;1.40;;;23.70;90.30;;;;;;5053445;28;20017;-70
2022/09/15 05:36:03;;;;;;;3.70;1.00;;;23.60;90.50;;;;;;5053372;28;20104;-69
2022/09/15 05:38:30;;;;;;;4.72;1.13;;;23.60;90.80;;;;;;5053315;28;20013;-71
2022/09/15 05:41:09;;;;;;;2.60;1.02;;;23.60;90.60;;;;;;5053348;28;20068;-72
2022/09/15 05:43:36;;;;;;;4.18;1.48;;;23.70;90.50;;;;;;5053489;28;20021;-68
2022/09/15 05:46:03;;;;;;;5.30;1.77;;;23.70;90.40;;;;;;5053399;28;20040;-68
2022/09/15 05:48:30;;;;;;;8.70;2.28;;;23.80;90.50;;;;;;5053009;28;20029;-69
2022/09/15 05:50:56;;;;;;;4.45;1.50;;;23.80;90.80;;;;;;5053285;28;20482;-69
2022/09/15 05:53:22;;;;;;;5.28;1.60;;;23.70;91.00;;;;;;5053599;28;20041;-67
2022/09/15 05:55:53;;;;;;;5.47;1.45;;;23.70;90.90;;;;;;5044870;28;20056;-68
2022/09/15 05:58:18;;;;;;;5.38;1.85;;;23.70;90.80;;;;;;5033716;28;20018;-63
2022/09/15 06:00:44;;;;;;;4.47;1.55;;;23.60;91.30;;;;;;5033580;28;20079;-68
2022/09/15 06:03:14;;;;;;;4.20;1.55;;;23.60;91.40;;;;;;5033448;28;20045;-64
2022/09/15 06:05:46;;;;;;;5.90;1.52;;;23.60;91.40;;;;;;5033459;28;20037;-69
2022/09/15 06:08:12;;;;;;;5.90;1.20;;;23.70;91.40;;;;;;5033834;28;20510;-66
2022/09/15 06:10:38;;;;;;;4.63;1.52;;;23.80;91.30;;;;;;5033283;28;20080;-64
2022/09/15 06:13:04;;;;;;;3.65;1.40;;;23.90;91.10;;;;;;5032349;28;20018;-66
2022/09/15 06:15:31;;;;;;;10.38;1.92;;;24.00;91.00;;;;;;5033332;28;20040;-68
2022/09/15 06:17:57;;;;;;;10.40;2.10;;;24.00;90.80;;;;;;5033413;28;20156;-73
2022/09/15 06:20:24;;;;;;;7.97;1.60;;;24.10;90.70;;;;;;5033321;28;20367;-76
2022/09/15 06:22:51;;;;;;;6.68;1.73;;;24.10;90.60;;;;;;5014857;28;20030;-76
2022/09/15 06:25:17;;;;;;;5.70;1.80;;;24.20;90.50;;;;;;5033180;28;20021;-74
2022/09/15 06:27:45;;;;;;;6.00;2.13;;;24.20;90.50;;;;;;5032876;28;20334;-70
2022/09/15 06:30:11;;;;;;;8.38;1.70;;;24.30;90.50;;;;;;5014920;28;20040;-74
2022/09/15 06:32:37;;;;;;;9.05;1.80;;;24.30;90.40;;;;;;5033183;28;20083;-69
2022/09/15 06:35:05;;;;;;;6.60;2.33;;;24.40;90.30;;;;;;5032241;28;20033;-71
2022/09/15 06:37:35;;;;;;;7.43;2.10;;;24.40;90.40;;;;;;5032509;28;20025;-69
2022/09/15 06:40:02;;;;;;;9.05;2.50;;;24.40;90.70;;;;;;5032927;28;20073;-68
2022/09/15 06:42:28;;;;;;;6.78;2.38;;;24.50;90.40;;;;;;5032490;28;20040;-69
2022/09/15 06:44:53;;;;;;;11.93;2.65;;;24.50;90.30;;;;;;5033011;28;20026;-69
2022/09/15 06:47:19;;;;;;;8.35;2.33;;;24.60;90.50;;;;;;5032638;28;20036;-73
2022/09/15 06:49:45;;;;;;;5.32;2.08;;;24.60;90.30;;;;;;5032375;28;20063;-69
2022/09/15 06:52:10;;;;;;;9.50;2.22;;;24.70;90.20;;;;;;5032753;28;20091;-68
2022/09/15 06:54:36;;;;;;;6.45;1.85;;;24.80;90.20;;;;;;5032551;28;20030;-65
2022/09/15 06:57:02;;;;;;;7.93;2.20;;;24.90;90.10;;;;;;5032696;28;20029;-70
2022/09/15 06:59:28;;;;;;;12.65;2.40;;;24.80;90.20;;;;;;5032546;28;20033;-65
2022/09/15 07:01:54;;;;;;;8.50;2.20;;;24.90;90.30;;;;;;5032556;28;20025;-67
2022/09/15 07:04:21;;;;;;;8.48;2.33;;;25.00;90.30;;;;;;5032224;28;20199;-65
2022/09/15 07:06:47;;;;;;;9.85;2.35;;;25.00;90.30;;;;;;5043605;28;20385;-66
2022/09/15 07:09:13;;;;;;;8.55;2.72;;;24.90;90.50;;;;;;5052336;28;20092;-69
2022/09/15 07:11:39;;;;;;;7.13;3.08;;;24.90;90.60;;;;;;5052177;28;20127;-67
2022/09/15 07:14:05;;;;;;;19.27;4.53;;;24.90;90.50;;;;;;5052273;28;20029;-65
2022/09/15 07:16:31;;;;;;;13.82;3.63;;;25.00;90.30;;;;;;5052343;28;20032;-68
2022/09/15 07:19:00;;;;;;;15.00;4.40;;;25.10;90.20;;;;;;5052341;28;20017;-67
2022/09/15 07:21:25;;;;;;;17.83;4.63;;;25.10;90.00;;;;;;5051901;28;20017;-69
2022/09/15 07:23:51;;;;;;;13.85;3.33;;;25.20;90.00;;;;;;5049680;28;20086;-67
2022/09/15 07:26:23;;;;;;;8.57;3.17;;;25.20;90.00;;;;;;5055829;28;20067;-65
2022/09/15 07:28:52;;;;;;;13.13;3.95;;;25.20;90.50;;;;;;5037661;28;20083;-65
2022/09/15 07:31:20;;;;;;;14.85;4.25;;;25.30;90.10;;;;;;5055562;28;20033;-66
2022/09/15 07:33:47;;;;;;;17.60;4.25;;;25.40;90.00;;;;;;5055576;28;20458;-65
2022/09/15 07:36:12;;;;;;;14.98;3.88;;;25.40;90.00;;;;;;5055522;28;20040;-67
2022/09/15 07:38:41;;;;;;;15.35;4.38;;;25.50;90.00;;;;;;5055724;28;20025;-65
2022/09/15 07:41:10;;;;;;;13.35;3.70;;;25.50;89.90;;;;;;5055455;28;20029;-65
2022/09/15 07:43:36;;;;;;;8.13;2.70;;;25.60;90.10;;;;;;5055713;28;20029;-67
2022/09/15 07:46:02;;;;;;;11.45;2.95;;;25.70;90.10;;;;;;5037561;28;20162;-65
2022/09/15 07:48:29;;;;;;;10.15;3.53;;;25.80;90.20;;;;;;5055690;28;20043;-67
2022/09/15 07:50:55;;;;;;;6.68;2.65;;;25.90;90.10;;;;;;5055217;28;20033;-68
2022/09/15 07:53:20;;;;;;;10.55;2.85;;;25.90;90.00;;;;;;5055318;28;20421;-67
2022/09/15 07:55:53;;;;;;;10.73;3.10;;;26.00;89.70;;;;;;5055144;28;20466;-67
2022/09/15 07:58:19;;;;;;;9.40;2.65;;;26.10;89.40;;;;;;5055626;28;20037;-65
2022/09/15 08:00:46;;;;;;;14.70;3.10;;;26.10;89.10;;;;;;5055539;28;20025;-68
2022/09/15 08:03:12;;;;;;;11.32;3.03;;;26.20;88.40;;;;;;5055439;28;20029;-66
2022/09/15 08:05:38;;;;;;;10.55;2.90;;;26.30;88.00;;;;;;5055003;28;20078;-65
2022/09/15 08:08:04;;;;;;;9.23;3.33;;;26.40;87.80;;;;;;5055142;28;20037;-66
2022/09/15 08:10:31;;;;;;;14.38;2.92;;;26.50;87.00;;;;;;5055105;28;20422;-66
2022/09/15 08:12:59;;;;;;;12.20;3.00;;;26.60;86.40;;;;;;5055158;28;20083;-66
2022/09/15 08:15:25;;;;;;;12.15;3.47;;;26.80;86.00;;;;;;5054887;28;20058;-65
2022/09/15 08:17:52;;;;;;;9.93;3.00;;;26.80;85.40;;;;;;5055267;28;20124;-65
2022/09/15 08:20:18;;;;;;;9.00;2.88;;;26.90;85.30;;;;;;5055541;28;20163;-66
2022/09/15 08:22:45;;;;;;;9.95;2.80;;;26.90;85.00;;;;;;5054968;28;20025;-68
2022/09/15 08:25:11;;;;;;;10.85;2.42;;;27.00;84.70;;;;;;5054896;28;20079;-65
2022/09/15 08:27:37;;;;;;;11.43;2.97;;;27.10;84.30;;;;;;5055051;28;20032;-65
2022/09/15 08:30:04;;;;;;;10.65;2.88;;;27.20;83.20;;;;;;5055352;28;20044;-68
2022/09/15 08:32:30;;;;;;;12.27;3.90;;;27.30;82.80;;;;;;5055318;28;20092;-69
2022/09/15 08:34:56;;;;;;;8.68;2.55;;;27.30;82.40;;;;;;5036305;28;20498;-71
2022/09/15 08:37:22;;;;;;;16.08;3.13;;;27.30;81.50;;;;;;5055321;28;20476;-72
2022/09/15 08:39:47;;;;;;;10.43;2.83;;;27.40;81.10;;;;;;5054805;28;20021;-71
2022/09/15 08:42:18;;;;;;;12.43;3.10;;;27.40;80.30;;;;;;5036902;28;20029;-66
2022/09/15 08:45:01;;;;;;;10.75;3.95;;;27.50;80.10;;;;;;5054567;28;20025;-68
2022/09/15 08:47:43;;;;;;;12.85;3.67;;;27.40;81.20;;;;;;5054256;28;20067;-68
2022/09/15 08:50:26;;;;;;;12.57;4.25;;;27.40;82.20;;;;;;5054253;28;20021;-68
2022/09/15 08:52:59;;;;;;;9.68;4.25;;;27.20;83.10;;;;;;5052869;28;20060;-67
2022/09/15 08:55:25;;;;;;;14.60;4.25;;;27.10;84.50;;;;;;5054123;28;20136;-66
2022/09/15 08:57:54;;;;;;;15.27;4.40;;;27.10;84.10;;;;;;5054385;28;20509;-67
2022/09/15 09:00:20;;;;;;;15.77;3.67;;;27.10;84.50;;;;;;5054615;28;20033;-72
2022/09/15 09:03:12;;;;;;;9.65;3.13;;;27.10;83.40;;;;;;5054228;28;20032;-71
2022/09/15 09:06:25;;;;;;;17.88;4.13;;;27.30;83.20;;;;;;5054068;28;20025;-68
2022/09/15 09:09:15;;;;;;;13.52;3.60;;;27.40;81.80;;;;;;4976671;28;20348;-66
2022/09/15 09:11:47;;;;;;;14.60;3.67;;;27.70;80.40;;;;;;4992677;28;20042;-68
2022/09/15 09:14:24;;;;;;;11.32;3.30;;;27.80;79.50;;;;;;5033399;28;20045;-70
2022/09/15 09:17:09;;;;;;;10.07;2.90;;;27.90;78.60;;;;;;5053953;28;20501;-71
2022/09/15 09:20:02;;;;;;;14.52;3.08;;;28.20;77.90;;;;;;5053809;28;20027;-70
2022/09/15 09:22:35;;;;;;;15.27;3.78;;;28.40;76.90;;;;;;5053870;28;20036;-67
2022/09/15 09:25:03;;;;;;;15.05;3.25;;;28.50;76.80;;;;;;5053473;28;20041;-70
2022/09/15 09:27:33;;;;;;;11.43;3.25;;;28.70;76.20;;;;;;5053728;28;20021;-71
2022/09/15 09:30:12;;;;;;;15.38;3.05;;;28.70;76.00;;;;;;5053312;28;20106;-68
2022/09/15 09:32:44;;;;;;;11.57;3.28;;;28.80;75.40;;;;;;5036859;28;20036;-69
2022/09/15 09:36:04;;;;;;;10.13;3.13;;;28.90;75.30;;;;;;5053404;28;20119;-67
2022/09/15 09:38:38;;;;;;;7.28;2.60;;;29.00;73.90;;;;;;4991819;28;20117;-66
2022/09/15 09:41:16;;;;;;;12.05;4.18;;;29.00;74.80;;;;;;5043999;28;20052;-68
2022/09/15 09:43:45;;;;;;;14.80;4.00;;;29.00;73.80;;;;;;5053253;28;20024;-67
2022/09/15 09:46:18;;;;;;;11.02;2.97;;;29.00;74.00;;;;;;5053472;28;20416;-66
2022/09/15 09:48:55;;;;;;;13.40;3.67;;;29.00;73.80;;;;;;5052830;28;20032;-66
2022/09/15 09:51:51;;;;;;;13.70;2.90;;;29.00;72.60;;;;;;5053095;28;20179;-65
2022/09/15 09:54:19;;;;;;;73.28;7.30;;;29.10;72.40;;;;;;5052977;28;20493;-68
2022/09/15 09:56:49;;;;;;;30.30;4.20;;;29.10;73.10;;;;;;5053110;28;20029;-65
2022/09/15 09:59:30;;;;;;;16.98;4.22;;;29.10;72.00;;;;;;5052879;28;20160;-66
2022/09/15 10:02:05;;;;;;;19.80;4.28;;;29.20;71.90;;;;;;5052909;28;20029;-68
2022/09/15 10:04:30;;;;;;;14.45;3.35;;;29.30;71.60;;;;;;5052692;28;20021;-71
2022/09/15 10:06:56;;;;;;;12.93;3.45;;;29.40;71.50;;;;;;5052389;28;20086;-67
2022/09/15 10:09:22;;;;;;;11.52;3.58;;;29.50;70.80;;;;;;5052742;28;20506;-69
2022/09/15 10:11:51;;;;;;;12.63;2.78;;;29.60;70.30;;;;;;5052748;28;20041;-68
2022/09/15 10:14:33;;;;;;;14.23;3.47;;;29.80;70.20;;;;;;5052663;28;20493;-69
2022/09/15 10:17:14;;;;;;;15.00;2.97;;;29.90;70.10;;;;;;5052670;28;20116;-71
2022/09/15 10:19:55;;;;;;;14.77;3.20;;;30.00;70.00;;;;;;5052529;28;20060;-71
2022/09/15 10:22:32;;;;;;;15.70;3.83;;;30.00;69.20;;;;;;5052736;28;20025;-71
2022/09/15 10:24:59;;;;;;;16.98;3.80;;;30.00;68.90;;;;;;5052538;28;20025;-71
2022/09/15 10:27:28;;;;;;;17.85;3.45;;;30.00;69.60;;;;;;5052459;28;20033;-72
2022/09/15 10:29:57;;;;;;;20.88;4.05;;;30.00;69.00;;;;;;5052591;28;20040;-72
2022/09/15 10:32:30;;;;;;;16.67;3.53;;;29.90;68.70;;;;;;5052783;28;20025;-69
2022/09/15 10:35:00;;;;;;;19.08;3.72;;;29.90;68.90;;;;;;5052664;28;20032;-69
2022/09/15 10:37:37;;;;;;;14.57;3.47;;;29.90;69.10;;;;;;5052547;28;20067;-70
2022/09/15 10:40:34;;;;;;;16.52;3.40;;;29.90;69.20;;;;;;5051042;28;20131;-71
2022/09/15 10:43:41;;;;;;;16.17;3.90;;;30.00;69.00;;;;;;5052761;28;20024;-71
2022/09/15 10:46:24;;;;;;;13.77;2.60;;;30.10;69.20;;;;;;5014631;28;20029;-75
2022/09/15 10:49:00;;;;;;;13.57;3.08;;;30.20;68.10;;;;;;5052599;28;20545;-77
2022/09/15 10:51:33;;;;;;;14.82;4.20;;;30.40;67.00;;;;;;5034698;28;20045;-69
2022/09/15 10:54:08;;;;;;;16.65;3.70;;;30.40;67.40;;;;;;5052238;28;20025;-68
2022/09/15 10:56:45;;;;;;;17.70;3.88;;;30.40;67.20;;;;;;5052755;28;20068;-68
2022/09/15 10:59:44;;;;;;;13.93;3.65;;;30.30;67.00;;;;;;5055080;28;20555;-68
2022/09/15 11:02:31;;;;;;;16.17;3.88;;;30.20;67.60;;;;;;5058739;28;20067;-68
2022/09/15 11:05:26;;;;;;;49.88;5.10;;;30.20;67.90;;;;;;5058564;28;20032;-72
2022/09/15 11:08:10;;;;;;;22.88;4.00;;;30.30;68.10;;;;;;5059015;28;20440;-69
2022/09/15 11:10:49;;;;;;;15.55;3.95;;;30.40;67.90;;;;;;5059103;28;20414;-68
2022/09/15 11:13:36;;;;;;;14.88;3.78;;;30.40;67.60;;;;;;5058664;28;20013;-67
2022/09/15 11:16:10;;;;;;;16.17;3.47;;;30.40;67.40;;;;;;5058838;28;20025;-69
2022/09/15 11:18:54;;;;;;;14.80;3.53;;;30.50;67.70;;;;;;5058880;28;20107;-68
2022/09/15 11:21:23;;;;;;;14.77;3.50;;;30.50;67.70;;;;;;5059047;28;20465;-70
2022/09/15 11:24:22;;;;;;;13.13;3.28;;;30.60;67.20;;;;;;5041161;28;20393;-70
2022/09/15 11:27:12;;;;;;;12.75;3.45;;;30.60;67.20;;;;;;5059153;28;20102;-67
2022/09/15 11:29:46;;;;;;;18.25;3.15;;;30.60;66.60;;;;;;5047900;28;20063;-70
2022/09/15 11:32:29;;;;;;;20.02;3.30;;;30.50;66.90;;;;;;5041176;28;20029;-70
2022/09/15 11:35:18;;;;;;;10.63;2.80;;;30.40;68.00;;;;;;5059126;28;20021;-73
2022/09/15 11:37:49;;;;;;;10.35;2.63;;;30.10;67.90;;;;;;5059005;28;20029;-74
2022/09/15 11:40:27;;;;;;;9.63;2.83;;;30.10;67.70;;;;;;5059277;28;20017;-69
2022/09/15 11:43:12;;;;;;;10.95;2.67;;;30.10;68.20;;;;;;5059029;28;20110;-72
2022/09/15 11:45:47;;;;;;;11.95;3.00;;;30.20;67.80;;;;;;5059032;28;20028;-70
2022/09/15 11:48:19;;;;;;;11.88;2.97;;;30.30;67.90;;;;;;5059087;28;20390;-70
2022/09/15 11:50:48;;;;;;;7.93;2.15;;;30.20;67.70;;;;;;5058683;28;20040;-70
2022/09/15 11:53:36;;;;;;;15.05;3.65;;;30.10;68.10;;;;;;5058268;28;20024;-71
2022/09/15 11:56:34;;;;;;;7.35;2.40;;;30.10;68.70;;;;;;5058634;28;20547;-69
2022/09/15 11:59:26;;;;;;;9.25;2.55;;;30.00;68.90;;;;;;5050474;28;20040;-70
2022/09/15 12:02:26;;;;;;;15.02;3.03;;;30.10;69.00;;;;;;5058832;28;20021;-70
2022/09/15 12:05:10;;;;;;;14.57;3.13;;;30.20;68.90;;;;;;5048044;28;20037;-71
2022/09/15 12:08:15;;;;;;;7.32;1.90;;;30.40;68.70;;;;;;5058240;28;20067;-69
2022/09/15 12:10:45;;;;;;;8.93;2.40;;;30.60;68.20;;;;;;5056476;28;20076;-70
2022/09/15 12:13:17;;;;;;;11.77;2.90;;;30.70;67.90;;;;;;5055635;28;20017;-71
2022/09/15 12:15:43;;;;;;;13.05;2.65;;;30.60;67.90;;;;;;5055377;28;20029;-70
2022/09/15 12:18:18;;;;;;;11.75;2.63;;;30.60;68.10;;;;;;5055154;28;20469;-70
2022/09/15 12:20:53;;;;;;;10.15;2.72;;;30.60;68.70;;;;;;5055154;28;20052;-69
2022/09/15 12:23:31;;;;;;;7.97;2.78;;;30.50;68.30;;;;;;5055038;28;20028;-69
2022/09/15 12:26:13;;;;;;;11.23;2.88;;;30.50;69.20;;;;;;5054837;28;20017;-70
2022/09/15 12:28:50;;;;;;;12.43;2.90;;;30.40;69.10;;;;;;5054663;28;20036;-70
2022/09/15 12:31:22;;;;;;;11.63;3.00;;;30.40;69.50;;;;;;5054879;28;20064;-69
2022/09/15 12:33:56;;;;;;;8.63;2.67;;;30.30;69.90;;;;;;5054626;28;20044;-70
2022/09/15 12:36:37;;;;;;;14.50;3.60;;;30.40;69.90;;;;;;5055007;28;20091;-71
2022/09/15 12:39:25;;;;;;;10.45;3.25;;;30.40;69.70;;;;;;5054764;28;20529;-70
2022/09/15 12:42:03;;;;;;;13.55;3.33;;;30.50;69.60;;;;;;5054802;28;20070;-71
2022/09/15 12:44:56;;;;;;;8.50;3.40;;;30.50;70.00;;;;;;5036945;28;20036;-71
2022/09/15 12:47:41;;;;;;;10.73;3.17;;;30.60;70.10;;;;;;5055046;28;20021;-69
2022/09/15 12:50:24;;;;;;;10.50;2.90;;;30.50;70.40;;;;;;5036781;28;20029;-69
2022/09/15 12:53:01;;;;;;;11.50;2.60;;;30.60;70.60;;;;;;5055029;28;20033;-71
2022/09/15 12:55:46;;;;;;;14.40;3.35;;;30.60;70.50;;;;;;5054505;28;20357;-71
2022/09/15 12:58:39;;;;;;;10.75;3.40;;;30.60;70.50;;;;;;5054635;28;20025;-74
2022/09/15 13:01:17;;;;;;;13.57;3.85;;;30.60;70.40;;;;;;5048586;28;20126;-73
2022/09/15 13:03:42;;;;;;;13.23;3.10;;;30.70;70.00;;;;;;5054503;28;20392;-73
2022/09/15 13:06:23;;;;;;;14.40;3.70;;;30.60;70.40;;;;;;5036558;28;20486;-70
2022/09/15 13:08:53;;;;;;;9.32;2.80;;;30.60;70.50;;;;;;5054804;28;20025;-71
2022/09/15 13:11:33;;;;;;;9.93;2.88;;;30.60;70.40;;;;;;5052907;28;20077;-70